createdAt,value
2023-01-27T00:04:32.573Z,30
2023-01-27T00:09:34.187Z,31
2023-01-27T00:14:35.878Z,38
2023-01-27T00:19:37.568Z,26
2023-01-27T00:24:39.203Z,35
2023-01-27T00:29:40.970Z,31
2023-01-27T00:34:42.907Z,40
2023-01-27T00:39:44.545Z,33
2023-01-27T00:44:46.241Z,28
2023-01-27T00:49:47.843Z,36
2023-01-27T00:54:49.523Z,33
2023-01-27T00:59:51.170Z,27
2023-01-27T01:04:52.818Z,26
2023-01-27T01:09:54.414Z,39
2023-01-27T01:14:56.004Z,35
2023-01-27T01:19:57.867Z,30
2023-01-27T01:24:59.458Z,26
2023-01-27T01:30:01.318Z,31
2023-01-27T01:35:05.062Z,32
2023-01-27T01:40:06.934Z,38
2023-01-27T01:45:08.898Z,39
2023-01-27T01:50:10.977Z,37
2023-01-27T01:55:13.295Z,28
2023-01-27T02:00:15.474Z,34
2023-01-27T02:05:17.360Z,47
2023-01-27T02:10:19.109Z,26
2023-01-27T02:15:20.816Z,36
2023-01-27T02:20:22.585Z,38
2023-01-27T02:25:24.167Z,31
2023-01-27T02:30:25.869Z,29
2023-01-27T02:35:27.687Z,34
2023-01-27T02:40:29.265Z,39
2023-01-27T02:45:30.913Z,35
2023-01-27T02:50:32.567Z,35
2023-01-27T02:55:34.187Z,35
2023-01-27T03:00:35.851Z,35
2023-01-27T03:05:37.556Z,33
2023-01-27T03:10:39.176Z,39
2023-01-27T03:15:40.810Z,38
2023-01-27T03:20:42.530Z,39
2023-01-27T03:25:44.157Z,35
2023-01-27T03:30:45.981Z,34
2023-01-27T03:35:47.632Z,39
2023-01-27T03:40:49.272Z,32
2023-01-27T03:45:51.106Z,42
2023-01-27T03:50:52.951Z,35
2023-01-27T03:55:54.810Z,42
2023-01-27T04:00:56.528Z,27
2023-01-27T04:05:58.175Z,37
2023-01-27T04:10:59.828Z,32
2023-01-27T04:16:01.660Z,33
2023-01-27T04:21:03.273Z,26
2023-01-27T04:26:05.079Z,30
2023-01-27T04:31:06.785Z,32
2023-01-27T04:36:08.491Z,34
2023-01-27T04:41:10.313Z,27
2023-01-27T04:46:12.185Z,20
2023-01-27T04:51:13.814Z,29
2023-01-27T04:56:15.457Z,25
2023-01-27T05:01:17.045Z,23
2023-01-27T05:06:18.701Z,19
2023-01-27T05:11:20.437Z,27
2023-01-27T05:16:22.171Z,30
2023-01-27T05:21:24.367Z,31
2023-01-27T05:26:25.986Z,19
2023-01-27T05:31:27.862Z,20
2023-01-27T05:36:29.554Z,28
2023-01-27T05:41:31.203Z,19
2023-01-27T05:46:32.980Z,28
2023-01-27T05:51:34.633Z,26
2023-01-27T05:56:36.278Z,22
2023-01-27T06:01:38.009Z,22
2023-01-27T06:06:39.660Z,29
2023-01-27T06:11:41.290Z,27
2023-01-27T06:16:43.000Z,23
2023-01-27T06:21:44.814Z,32
2023-01-27T06:26:46.481Z,21
2023-01-27T06:31:48.153Z,18
2023-01-27T06:36:50.041Z,22
2023-01-27T06:41:51.979Z,17
2023-01-27T06:46:59.047Z,16
2023-01-27T06:52:00.680Z,24
2023-01-27T06:57:02.384Z,22
2023-01-27T07:02:04.103Z,20
2023-01-27T07:07:05.708Z,26
2023-01-27T07:12:07.300Z,39
2023-01-27T07:17:08.909Z,22
2023-01-27T07:22:10.488Z,26
2023-01-27T07:27:12.098Z,28
2023-01-27T07:32:13.758Z,22
2023-01-27T07:37:15.521Z,35
2023-01-27T07:42:17.299Z,25
2023-01-27T07:47:19.051Z,21
2023-01-27T07:52:20.693Z,15
2023-01-27T07:57:22.461Z,15
2023-01-27T08:02:24.149Z,16
2023-01-27T08:07:25.817Z,18
2023-01-27T08:12:27.464Z,16
2023-01-27T08:17:29.175Z,15
2023-01-27T08:22:30.808Z,16
2023-01-27T08:27:32.507Z,17
2023-01-27T08:32:34.246Z,24
2023-01-27T08:37:35.886Z,24
2023-01-27T08:42:37.532Z,16
2023-01-27T08:47:39.307Z,18
2023-01-27T08:52:40.914Z,20
2023-01-27T08:57:42.580Z,17
2023-01-27T09:02:46.469Z,19
2023-01-27T09:07:48.265Z,27
2023-01-27T09:12:49.948Z,18
2023-01-27T09:17:51.705Z,18
2023-01-27T09:22:53.342Z,20
2023-01-27T09:27:54.990Z,26
2023-01-27T09:32:56.807Z,18
2023-01-27T09:37:58.506Z,20
2023-01-27T09:43:00.169Z,23
2023-01-27T09:48:01.847Z,23
2023-01-27T09:53:03.497Z,17
2023-01-27T09:58:05.189Z,22
2023-01-27T10:03:06.792Z,23
2023-01-27T10:08:08.622Z,24
2023-01-27T10:13:10.405Z,28
2023-01-27T10:18:12.067Z,23
2023-01-27T10:23:13.722Z,26
2023-01-27T10:28:15.632Z,23
2023-01-27T10:33:17.412Z,32
2023-01-27T10:38:19.021Z,23
2023-01-27T10:43:20.643Z,32
2023-01-27T10:48:22.290Z,41
2023-01-27T10:53:23.947Z,26
2023-01-27T10:58:25.572Z,34
2023-01-27T11:03:27.234Z,28
2023-01-27T11:08:28.885Z,20
2023-01-27T11:13:30.519Z,29
2023-01-27T11:18:32.143Z,26
2023-01-27T11:23:33.767Z,28
2023-01-27T11:28:35.385Z,21
2023-01-27T11:33:36.987Z,25
2023-01-27T11:38:38.722Z,21
2023-01-27T11:43:40.299Z,30
2023-01-27T11:48:41.944Z,34
2023-01-27T11:53:43.753Z,31
2023-01-27T11:58:45.405Z,28
2023-01-27T12:03:47.160Z,28
2023-01-27T12:08:48.879Z,30
2023-01-27T12:13:50.516Z,29
2023-01-27T12:18:52.160Z,24
2023-01-27T12:23:54.075Z,43
2023-01-27T12:28:55.725Z,40
2023-01-27T12:33:57.337Z,26
2023-01-27T12:38:58.953Z,26
2023-01-27T12:44:00.565Z,23
2023-01-27T12:49:02.257Z,31
2023-01-27T12:54:03.901Z,30
2023-01-27T12:59:05.515Z,34
2023-01-27T13:04:07.223Z,37
2023-01-27T13:09:08.852Z,30
2023-01-27T13:14:10.478Z,24
2023-01-27T13:19:12.121Z,27
2023-01-27T13:24:13.942Z,31
2023-01-27T13:29:15.692Z,28
2023-01-27T13:34:17.371Z,30
2023-01-27T13:39:19.616Z,34
2023-01-27T13:44:21.243Z,28
2023-01-27T13:49:22.960Z,38
2023-01-27T13:54:24.735Z,35
2023-01-27T13:59:26.363Z,50
2023-01-27T14:04:27.998Z,35
2023-01-27T14:09:29.633Z,31
2023-01-27T14:14:31.199Z,29
2023-01-27T14:19:32.833Z,49
2023-01-27T14:24:34.696Z,41
2023-01-27T14:29:36.381Z,38
2023-01-27T14:34:37.995Z,41
2023-01-27T14:39:39.695Z,26
2023-01-27T14:44:44.150Z,49
2023-01-27T14:49:57.192Z,34
2023-01-27T14:54:58.879Z,29
2023-01-27T15:00:00.964Z,27
2023-01-27T15:05:02.668Z,29
2023-01-27T15:10:04.471Z,38
2023-01-27T15:15:06.092Z,36
2023-01-27T15:20:07.891Z,27
2023-01-27T15:25:09.749Z,30
2023-01-27T15:30:11.968Z,26
2023-01-27T15:35:14.011Z,40
2023-01-27T15:40:15.917Z,37
2023-01-27T15:45:17.768Z,23
2023-01-27T15:50:19.433Z,12
2023-01-27T15:55:21.064Z,24
2023-01-27T16:00:22.676Z,37
2023-01-27T16:05:24.289Z,44
2023-01-27T16:10:25.867Z,33
2023-01-27T16:15:27.554Z,30
2023-01-27T16:20:29.176Z,34
2023-01-27T16:25:30.806Z,23
2023-01-27T16:30:32.474Z,154
2023-01-27T16:35:34.214Z,179
2023-01-27T16:40:35.848Z,55
2023-01-27T16:45:37.521Z,35
2023-01-27T16:50:39.336Z,29
2023-01-27T16:55:41.020Z,15
2023-01-27T17:00:42.779Z,17
2023-01-27T17:05:44.463Z,14
2023-01-27T17:10:46.091Z,24
2023-01-27T17:15:47.744Z,29
2023-01-27T17:20:49.379Z,23
2023-01-27T17:25:51.102Z,19
2023-01-27T17:30:52.887Z,20
2023-01-27T17:35:54.554Z,19
2023-01-27T17:40:56.188Z,19
2023-01-27T17:45:57.830Z,24
2023-01-27T17:50:59.570Z,18
2023-01-27T17:56:01.220Z,23
2023-01-27T18:01:02.940Z,22
2023-01-27T18:06:04.580Z,22
2023-01-27T18:11:06.221Z,22
2023-01-27T18:16:07.958Z,18
2023-01-27T18:21:09.662Z,23
2023-01-27T18:26:11.342Z,24
2023-01-27T18:31:13.152Z,25
2023-01-27T18:36:14.838Z,18
2023-01-27T18:41:16.595Z,21
2023-01-27T18:46:18.247Z,23
2023-01-27T18:51:19.919Z,18
2023-01-27T18:56:21.707Z,29
2023-01-27T19:01:23.310Z,21
2023-01-27T19:06:25.010Z,21
2023-01-27T19:11:26.826Z,17
2023-01-27T19:16:28.490Z,13
2023-01-27T19:21:30.148Z,18
2023-01-27T19:26:31.815Z,18
2023-01-27T19:31:33.512Z,14
2023-01-27T19:36:35.188Z,12
2023-01-27T19:41:36.904Z,17
2023-01-27T19:46:38.955Z,21
2023-01-27T19:51:40.575Z,20
2023-01-27T19:56:42.313Z,31
2023-01-27T20:01:43.948Z,26
2023-01-27T20:06:45.592Z,40
2023-01-27T20:11:47.208Z,37
2023-01-27T20:16:48.903Z,39
2023-01-27T20:21:50.559Z,49
2023-01-27T20:26:52.160Z,39
2023-01-27T20:31:53.838Z,36
2023-01-27T20:36:55.500Z,57
2023-01-27T20:41:57.293Z,31
2023-01-27T20:46:58.902Z,24
2023-01-27T20:52:00.482Z,40
2023-01-27T20:57:02.094Z,35
2023-01-27T21:02:03.735Z,41
2023-01-27T21:07:05.375Z,36
2023-01-27T21:12:07.056Z,33
2023-01-27T21:17:08.725Z,30
2023-01-27T21:22:10.395Z,22
2023-01-27T21:27:11.995Z,38
2023-01-27T21:32:13.623Z,27
2023-01-27T21:37:15.250Z,30
2023-01-27T21:42:16.835Z,60
2023-01-27T21:47:18.524Z,57
2023-01-27T21:52:20.160Z,56
2023-01-27T21:57:21.842Z,74
2023-01-27T22:02:23.564Z,65
2023-01-27T22:07:25.368Z,66
2023-01-27T22:12:27.043Z,54
2023-01-27T22:17:28.681Z,54
2023-01-27T22:22:31.434Z,49
2023-01-27T22:27:33.055Z,61
2023-01-27T22:32:34.758Z,46
2023-01-27T22:37:36.458Z,55
2023-01-27T22:42:38.053Z,53
2023-01-27T22:47:39.821Z,46
2023-01-27T22:52:41.436Z,69
2023-01-27T22:57:43.054Z,55
2023-01-27T23:02:45.005Z,50
2023-01-27T23:07:46.773Z,56
2023-01-27T23:12:48.486Z,62
2023-01-27T23:17:50.101Z,66
2023-01-27T23:22:51.743Z,53
2023-01-27T23:27:53.363Z,60
2023-01-27T23:32:55.027Z,48
2023-01-27T23:37:56.618Z,55
2023-01-27T23:42:58.263Z,58
2023-01-27T23:47:59.890Z,53
2023-01-27T23:53:01.547Z,48
2023-01-27T23:58:03.157Z,58
